Bighorn, MT

10:37 AM MDT on April 25, 2015 (GMT -0600)
MesoWest | | Change Station
CLOSE
Current Station
Personal Weather Station
Location: Bighorn, MT
Elevation: 3549 ft
Nearby Weather Stations

Elev 3549 ft 46.16 °N, 107.31 °W | Updated 41 minutes ago

Overcast
Overcast
37 °F
Feels Like 30 °F
N
10
Wind Variable Wind from West
Gusts 21.0 mph

Today
High -- | Low -- °F
--% Chance of Precip.
Yesterday
High -- | Low -- °F
Precip. -- in
6:05 AM 8:08 PM
Waxing Crescent, 47% visible
Pressure 29.65 in
Visibility 10.0 miles
Clouds Few 8000 ft
Overcast 11000 ft
Windchill 30 °F
Dew Point 35 °F
Humidity 94%
Rainfall in
Snow Depth Not available.
UV 2 out of 12
Pollen 9.50 out of 12
Air Quality Not available.
Flu Activity Local Activity
METAR KMLS 251553Z AUTO 34006KT 10SM FEW080 OVC110 12/04 A2965 RMK AO2 SLP041 T01170044

More Conditions Fewer Conditions

Pressure 29.65 in
Visibility 10.0 miles
Clouds Few 8000 ft
Overcast 11000 ft
Windchill 30 °F
Dew Point 35 °F
Humidity 94%
Rainfall in
Snow Depth Not available.
UV 2 out of 12
Pollen 9.50 out of 12
Air Quality Not available.
Flu Activity Local Activity
METAR KMLS 251553Z AUTO 34006KT 10SM FEW080 OVC110 12/04 A2965 RMK AO2 SLP041 T01170044

More Conditions Fewer Conditions

10-Day Weather Forecast

Almanac

Astronomy

Apr. 25, 2015 Rise Set
Actual Time
Civil Twilight
Nautical Twilight
Astronomical Twilight
Moon
Length of Visible Light
Length of Day
Tomorrow will be .
, % of the Moon is Illuminated

Today's Extremes

State Highs State Lows

Community

WunderPhotos

Upload Photos

1,816,735 photos uploaded!

WunderBlogs® & News

Nearby

Air Quality

  Air Quality AQ Index Pollutant
Not available.

Snow Depth

Station Depth Elevation

Earthquake Activity

City Distance Mag. Time & Date
Minimum magnitude displayed is 2.5.

Coastal Water Temperatures

Place Temperature

Stations

Nearby Weather Stations

Station Location Temp. Windchill Dew Point Humidity Wind Precip. Elev Updated Type